Time;durP1;ratioP1;P1;durP2;ratioP2;P2;SDS_P1;SDS_P2;PMS_P1;PMS_P2;Temp;Humidity;BMP_temperature;BMP_pressure;BME280_temperature;BME280_humidity;BME280_pressure;Samples;Min_cycle;Max_cycle;Signal;HPM_P1;HPM_P2
2022/12/04 00:02:05;;;;;;;13.68;6.28;;;;;;;-5.09;66.97;103199.78;1746757;81;20977;-88
2022/12/04 00:04:32;;;;;;;9.83;5.20;;;;;;;-5.11;66.98;103188.98;1746745;82;21037;-87
2022/12/04 00:06:59;;;;;;;9.23;5.33;;;;;;;-5.12;67.06;103197.48;1746932;81;21085;-88
2022/12/04 00:09:25;;;;;;;9.63;5.33;;;;;;;-5.11;66.91;103200.11;1746867;81;20917;-85
2022/12/04 00:11:52;;;;;;;11.48;5.35;;;;;;;-5.08;66.92;103189.14;1747747;82;21048;-89
2022/12/04 00:14:18;;;;;;;10.18;4.80;;;;;;;-5.04;66.51;103189.77;1745849;81;21653;-89
2022/12/04 00:16:45;;;;;;;10.43;4.90;;;;;;;-5.07;65.98;103196.00;1734844;82;20938;-87
2022/12/04 00:19:12;;;;;;;12.10;4.55;;;;;;;-5.10;65.81;103201.85;1734328;82;21837;-88
2022/12/04 00:21:38;;;;;;;11.85;5.20;;;;;;;-5.10;65.82;103198.02;1734155;81;20907;-87
2022/12/04 00:24:06;;;;;;;9.60;4.42;;;;;;;-5.09;65.55;103197.61;1734115;82;20911;-88
2022/12/04 00:26:32;;;;;;;12.43;6.87;;;;;;;-5.08;65.47;103201.52;1733969;82;21021;-88
2022/12/04 00:28:59;;;;;;;15.50;6.00;;;;;;;-5.12;65.06;103201.31;1734209;81;21432;-87
2022/12/04 00:31:28;;;;;;;10.08;4.85;;;;;;;-5.17;65.10;103194.70;1734416;82;21196;-87
2022/12/04 00:33:54;;;;;;;9.68;5.30;;;;;;;-5.18;65.05;103199.74;1734004;82;20943;-87
2022/12/04 00:36:23;;;;;;;10.08;6.55;;;;;;;-5.19;65.11;103202.70;1734054;82;20855;-88
2022/12/04 00:38:49;;;;;;;10.28;4.75;;;;;;;-5.16;64.67;103205.80;1734124;82;20887;-87
2022/12/04 00:41:19;;;;;;;10.70;4.50;;;;;;;-5.19;64.29;103198.00;1734201;82;20915;-87
2022/12/04 00:43:47;;;;;;;9.18;4.58;;;;;;;-5.24;64.27;103204.19;1734062;82;21504;-87
2022/12/04 00:46:14;;;;;;;9.60;4.55;;;;;;;-5.26;64.17;103208.34;1734176;82;21013;-87
2022/12/04 00:50:23;;;;;;;8.28;5.42;;;;;;;-5.23;63.96;103204.64;1854626;77;22569;-86
2022/12/04 00:52:49;;;;;;;9.48;5.72;;;;;;;-5.32;63.78;103207.64;1822290;78;20935;-88
2022/12/04 00:55:16;;;;;;;7.53;3.62;;;;;;;-5.32;63.59;103206.37;1801983;78;21763;-89
2022/12/04 00:57:43;;;;;;;7.03;4.62;;;;;;;-5.31;63.55;103197.91;1789913;80;20848;-88
2022/12/04 01:00:10;;;;;;;8.53;4.75;;;;;;;-5.29;63.24;103223.53;1790132;79;20920;-88
2022/12/04 01:02:37;;;;;;;8.90;3.92;;;;;;;-5.30;62.71;103221.38;1790013;79;20943;-89
2022/12/04 01:05:04;;;;;;;5.53;4.10;;;;;;;-5.32;62.50;103219.56;1791385;79;20797;-87
2022/12/04 01:07:32;;;;;;;11.15;3.83;;;;;;;-5.36;62.25;103226.61;1793160;79;21194;-86
2022/12/04 01:09:58;;;;;;;8.18;4.47;;;;;;;-5.38;62.11;103216.33;1791705;80;20915;-87
2022/12/04 01:12:27;;;;;;;6.55;3.60;;;;;;;-5.41;62.02;103237.48;1771421;80;20986;-87
2022/12/04 01:14:54;;;;;;;9.83;4.22;;;;;;;-5.42;62.01;103226.80;1792047;79;20872;-87
2022/12/04 01:17:20;;;;;;;10.32;3.98;;;;;;;-5.43;62.03;103228.00;1793089;78;20934;-87
2022/12/04 01:19:46;;;;;;;10.38;4.25;;;;;;;-5.39;61.98;103232.86;1792927;78;21116;-87
2022/12/04 01:22:14;;;;;;;14.58;5.00;;;;;;;-5.36;61.61;103239.39;1790275;79;20891;-86
2022/12/04 01:24:41;;;;;;;8.70;3.72;;;;;;;-5.37;61.56;103232.12;1790016;80;20891;-86
2022/12/04 01:27:08;;;;;;;10.38;3.77;;;;;;;-5.34;61.36;103227.15;1789945;79;20888;-87
2022/12/04 01:29:34;;;;;;;8.45;4.97;;;;;;;-5.32;61.15;103221.71;1789955;79;20986;-88
2022/12/04 01:32:01;;;;;;;14.07;5.08;;;;;;;-5.32;61.06;103227.23;1790118;79;21056;-87
2022/12/04 01:34:27;;;;;;;9.13;3.87;;;;;;;-5.30;60.93;103238.41;1789958;80;20980;-89
2022/12/04 01:36:54;;;;;;;7.97;4.55;;;;;;;-5.32;60.53;103234.49;1789869;80;20932;-87
2022/12/04 01:39:20;;;;;;;9.40;3.67;;;;;;;-5.35;60.13;103226.69;1789955;80;20958;-89
2022/12/04 01:41:46;;;;;;;8.40;4.42;;;;;;;-5.41;60.25;103229.81;1790031;80;20974;-87
2022/12/04 01:44:24;;;;;;;7.00;3.58;;;;;;;-5.45;60.28;103233.44;1789866;80;21818;-87
2022/12/04 01:46:55;;;;;;;8.93;4.67;;;;;;;-5.53;60.48;103225.81;1789777;80;21017;-87
2022/12/04 01:49:45;;;;;;;9.13;4.03;;;;;;;-5.51;60.60;103231.88;1789790;80;20895;-88
2022/12/04 01:52:21;;;;;;;6.30;3.37;;;;;;;-5.52;60.33;103219.89;1790183;79;21419;-87
2022/12/04 01:54:52;;;;;;;8.50;3.42;;;;;;;-5.52;60.16;103236.50;1789989;79;20982;-87
2022/12/04 01:57:21;;;;;;;10.13;4.08;;;;;;;-5.56;60.18;103226.52;1789963;80;21180;-86
2022/12/04 01:59:54;;;;;;;7.42;3.67;;;;;;;-5.57;60.26;103220.94;1789636;80;21365;-87
2022/12/04 02:02:33;;;;;;;7.92;3.80;;;;;;;-5.54;60.27;103235.14;1789363;80;20971;-87
2022/12/04 02:05:01;;;;;;;7.90;3.52;;;;;;;-5.56;60.04;103232.04;1789382;79;20940;-87
2022/12/04 02:07:28;;;;;;;7.70;4.12;;;;;;;-5.58;60.08;103251.53;1789241;79;20950;-87
2022/12/04 02:09:55;;;;;;;8.20;3.90;;;;;;;-5.55;60.01;103250.42;1789237;80;21230;-87
2022/12/04 02:13:08;;;;;;;8.03;3.60;;;;;;;-5.55;59.78;103247.88;1789375;80;20915;-88
2022/12/04 02:16:10;;;;;;;8.18;3.87;;;;;;;-5.62;59.54;103247.56;1789585;79;20923;-87
2022/12/04 02:18:58;;;;;;;7.67;3.37;;;;;;;-5.64;59.67;103245.73;1789648;80;21006;-88
2022/12/04 02:21:39;;;;;;;7.72;3.17;;;;;;;-5.65;59.55;103246.52;1789484;80;20931;-87
2022/12/04 02:24:25;;;;;;;7.00;2.92;;;;;;;-5.65;59.57;103247.80;1789291;80;21214;-89
2022/12/04 02:27:02;;;;;;;3.80;2.52;;;;;;;-5.68;59.70;103252.77;1789445;80;20976;-88
2022/12/04 02:29:53;;;;;;;4.08;2.92;;;;;;;-5.71;59.28;103251.36;1789368;80;20967;-88
2022/12/04 02:32:40;;;;;;;5.62;2.67;;;;;;;-5.74;59.12;103247.34;1789231;79;21427;-88
2022/12/04 02:35:24;;;;;;;5.65;3.25;;;;;;;-5.79;59.27;103236.03;1788158;80;20892;-87
2022/12/04 02:38:02;;;;;;;5.97;3.22;;;;;;;-5.79;59.30;103250.09;1785194;79;21749;-88
2022/12/04 02:40:46;;;;;;;6.35;2.85;;;;;;;-5.78;59.06;103255.66;1788590;80;21429;-88
2022/12/04 02:43:17;;;;;;;3.92;2.80;;;;;;;-5.78;59.11;103249.27;1789552;79;20889;-88
2022/12/04 02:45:47;;;;;;;10.65;3.55;;;;;;;-5.77;58.98;103244.66;1789436;80;20899;-89
2022/12/04 02:48:17;;;;;;;9.70;3.12;;;;;;;-5.77;58.87;103245.94;1789309;80;20954;-88
2022/12/04 02:50:46;;;;;;;6.20;3.00;;;;;;;-5.76;58.87;103241.28;1794375;80;21905;-89
2022/12/04 02:53:19;;;;;;;6.60;3.58;;;;;;;-5.75;58.77;103252.00;1794932;80;20876;-87
2022/12/04 02:55:53;;;;;;;5.75;3.52;;;;;;;-5.79;58.48;103246.26;1797540;79;20856;-89
2022/12/04 02:58:34;;;;;;;4.83;2.60;;;;;;;-5.84;58.67;103252.01;1795026;80;20985;-88
2022/12/04 03:01:02;;;;;;;6.37;3.00;;;;;;;-5.86;58.99;103245.94;1792907;80;20934;-86
2022/12/04 03:03:29;;;;;;;4.83;3.15;;;;;;;-5.85;58.68;103254.10;1794892;79;22506;-86
2022/12/04 03:06:07;;;;;;;6.83;3.47;;;;;;;-5.88;58.69;103256.48;1794887;80;21345;-87
2022/12/04 03:08:45;;;;;;;3.47;2.20;;;;;;;-5.88;58.70;103251.38;1794768;79;21412;-89
2022/12/04 03:11:12;;;;;;;8.60;3.58;;;;;;;-5.90;58.50;103265.75;1794925;79;20900;-88
2022/12/04 03:13:45;;;;;;;8.58;3.75;;;;;;;-5.94;58.75;103255.33;1794925;79;20911;-89
2022/12/04 03:16:17;;;;;;;6.47;2.27;;;;;;;-5.93;58.73;103256.66;1793917;80;21257;-90
2022/12/04 03:18:49;;;;;;;7.55;2.45;;;;;;;-5.91;58.86;103259.30;1794849;79;20872;-88
2022/12/04 03:21:19;;;;;;;10.80;3.33;;;;;;;-5.92;58.66;103254.98;1795073;80;21349;-90
2022/12/04 03:23:50;;;;;;;4.20;2.83;;;;;;;-5.98;58.74;103246.66;1794923;79;20872;-86
2022/12/04 03:26:34;;;;;;;7.65;4.47;;;;;;;-5.98;58.89;103250.86;1794971;80;21001;-86
2022/12/04 03:29:28;;;;;;;4.30;2.17;;;;;;;-6.01;58.99;103252.86;1795062;79;21457;-89
2022/12/04 03:32:21;;;;;;;3.60;2.87;;;;;;;-6.06;58.72;103253.05;1796832;79;20922;-86
2022/12/04 03:34:59;;;;;;;11.22;2.40;;;;;;;-6.08;59.07;103263.58;1797065;79;20893;-87
2022/12/04 03:37:37;;;;;;;5.65;2.52;;;;;;;-6.06;59.12;103261.98;1796545;79;20903;-88
2022/12/04 03:40:36;;;;;;;5.72;3.35;;;;;;;-6.06;58.89;103262.85;1794001;79;20883;-86
2022/12/04 03:43:19;;;;;;;4.22;2.80;;;;;;;-6.11;58.92;103263.43;1797668;80;21172;-88
2022/12/04 03:45:57;;;;;;;4.62;2.37;;;;;;;-6.12;59.26;103259.98;1795638;80;20907;-88
2022/12/04 03:48:32;;;;;;;4.15;2.77;;;;;;;-6.08;59.01;103267.00;1795602;79;20903;-87
2022/12/04 03:51:17;;;;;;;9.20;3.83;;;;;;;-6.08;58.93;103269.96;1788272;79;20978;-87
2022/12/04 03:54:10;;;;;;;7.62;3.05;;;;;;;-6.08;59.01;103264.86;1788249;79;20923;-90
2022/12/04 03:57:09;;;;;;;5.92;3.05;;;;;;;-6.07;58.86;103267.50;1767084;80;21255;-88
2022/12/04 03:59:41;;;;;;;4.42;2.37;;;;;;;-6.06;58.64;103281.14;1789103;79;21002;-89
2022/12/04 04:02:11;;;;;;;3.22;2.47;;;;;;;-6.05;58.73;103276.12;1789312;79;21006;-86
2022/12/04 04:04:38;;;;;;;3.52;2.62;;;;;;;-6.05;58.64;103289.27;1789392;80;20986;-87
2022/12/04 04:07:19;;;;;;;5.25;3.08;;;;;;;-6.06;58.58;103283.69;1789422;80;20935;-89
2022/12/04 04:09:46;;;;;;;4.45;2.58;;;;;;;-6.08;58.52;103288.71;1789513;79;21302;-86
2022/12/04 04:12:19;;;;;;;3.67;2.08;;;;;;;-6.10;58.66;103297.09;1789478;79;20880;-87
2022/12/04 04:26:21;;;;;;;5.10;3.08;;;;;;;-6.27;58.86;103289.82;1789362;80;20912;-87
2022/12/04 04:28:47;;;;;;;3.42;2.27;;;;;;;-6.30;59.05;103293.09;1789319;79;21049;-87
2022/12/04 04:31:28;;;;;;;7.20;2.90;;;;;;;-6.28;58.95;103310.66;1789302;79;21388;-89
2022/12/04 04:34:20;;;;;;;5.30;2.67;;;;;;;-6.31;58.86;103295.19;1789514;79;20864;-89
2022/12/04 04:36:58;;;;;;;14.83;3.15;;;;;;;-6.37;59.04;103301.23;1789337;79;21277;-89
2022/12/04 04:39:30;;;;;;;5.12;2.42;;;;;;;-6.42;59.04;103304.33;1788705;79;20939;-89
2022/12/04 04:42:22;;;;;;;4.00;2.25;;;;;;;-6.47;59.20;103310.47;1788917;79;20951;-88
2022/12/04 04:45:20;;;;;;;3.40;2.20;;;;;;;-6.46;59.30;103310.97;1789324;80;20931;-89
2022/12/04 04:48:20;;;;;;;4.58;2.60;;;;;;;-6.40;59.27;103317.69;1789468;79;21741;-89
2022/12/04 04:50:46;;;;;;;2.58;1.85;;;;;;;-6.33;59.11;103321.03;1768504;79;21215;-87
2022/12/04 04:53:21;;;;;;;5.03;2.65;;;;;;;-6.33;58.92;103325.27;1762255;79;20993;-85
2022/12/04 04:55:47;;;;;;;3.45;2.02;;;;;;;-6.37;58.93;103327.17;1764249;79;20977;-86
2022/12/04 04:58:18;;;;;;;3.33;2.00;;;;;;;-6.39;58.70;103328.77;1765894;79;20867;-88
2022/12/04 05:01:04;;;;;;;2.60;2.15;;;;;;;-6.44;58.91;103335.31;1765934;79;20879;-88
2022/12/04 05:03:30;;;;;;;4.65;1.95;;;;;;;-6.44;59.00;103335.31;1766207;78;20965;-86
2022/12/04 05:05:57;;;;;;;7.08;2.35;;;;;;;-6.46;58.93;103330.11;1766233;79;20978;-88
2022/12/04 05:08:23;;;;;;;2.85;2.20;;;;;;;-6.42;58.93;103315.81;1729670;81;20856;-87
2022/12/04 05:10:50;;;;;;;7.25;2.67;;;;;;;-6.41;58.65;103329.95;1724189;83;20982;-87
2022/12/04 05:13:17;;;;;;;4.42;2.12;;;;;;;-6.46;58.38;103319.90;1724285;83;21540;-87
2022/12/04 05:15:44;;;;;;;8.70;2.25;;;;;;;-6.51;58.61;103313.68;1724266;82;21075;-87
2022/12/04 05:18:11;;;;;;;4.03;2.25;;;;;;;-6.50;58.65;103314.14;1696121;83;20966;-86
2022/12/04 05:20:38;;;;;;;3.08;2.02;;;;;;;-6.49;58.74;103319.72;1724286;83;21021;-88
2022/12/04 05:23:06;;;;;;;3.80;2.30;;;;;;;-6.47;58.72;103317.75;1724159;83;21425;-87
2022/12/04 05:25:32;;;;;;;6.53;2.55;;;;;;;-6.45;58.67;103324.19;1724558;83;21357;-87
2022/12/04 05:27:59;;;;;;;6.67;2.33;;;;;;;-6.42;58.53;103335.86;1724603;83;21139;-85
2022/12/04 05:30:26;;;;;;;5.80;3.52;;;;;;;-6.40;58.52;103329.55;1724707;83;21037;-87
2022/12/04 05:32:53;;;;;;;4.33;2.83;;;;;;;-6.41;58.32;103329.95;1725627;83;20883;-87
2022/12/04 05:35:19;;;;;;;3.22;2.22;;;;;;;-6.39;58.45;103333.46;1726362;83;20958;-86
2022/12/04 05:37:46;;;;;;;2.95;2.08;;;;;;;-6.37;58.25;103336.98;1726832;80;20919;-89
2022/12/04 05:40:13;;;;;;;4.80;2.15;;;;;;;-6.35;58.31;103334.11;1726109;80;21173;-89
2022/12/04 05:42:39;;;;;;;9.50;2.15;;;;;;;-6.34;58.22;103342.64;1724816;83;21002;-88
2022/12/04 05:45:06;;;;;;;3.42;2.10;;;;;;;-6.32;58.28;103335.95;1724254;81;20884;-89
2022/12/04 05:47:41;;;;;;;4.28;2.25;;;;;;;-6.29;58.03;103343.76;1724246;81;20975;-87
2022/12/04 05:50:10;;;;;;;4.47;2.67;;;;;;;-6.31;57.81;103344.98;1722674;81;21006;-89
2022/12/04 05:52:37;;;;;;;2.62;1.72;;;;;;;-6.34;57.78;103344.79;1789586;79;21827;-89
2022/12/04 05:55:04;;;;;;;5.15;3.08;;;;;;;-6.38;57.85;103350.92;1790059;79;20988;-90
2022/12/04 05:57:31;;;;;;;5.53;2.12;;;;;;;-6.40;57.67;103342.30;1789862;79;20884;-88
2022/12/04 05:59:58;;;;;;;5.12;2.87;;;;;;;-6.42;57.76;103345.17;1789710;79;20927;-87
2022/12/04 06:02:25;;;;;;;6.25;2.45;;;;;;;-6.42;57.77;103349.00;1789803;80;20883;-89
2022/12/04 06:04:51;;;;;;;5.87;2.83;;;;;;;-6.43;57.71;103351.95;1789481;80;22415;-84
2022/12/04 06:07:18;;;;;;;5.40;3.05;;;;;;;-6.42;57.61;103358.84;1789420;80;21018;-85
2022/12/04 06:09:45;;;;;;;4.85;2.67;;;;;;;-6.43;57.63;103361.30;1789336;80;20856;-86
2022/12/04 06:12:12;;;;;;;7.03;2.85;;;;;;;-6.47;57.52;103367.90;1789593;80;20899;-87
2022/12/04 06:14:38;;;;;;;11.53;2.95;;;;;;;-6.48;57.62;103367.44;1789587;79;20927;-86
2022/12/04 06:17:08;;;;;;;10.23;3.22;;;;;;;-6.47;57.70;103366.63;1789585;79;21322;-87
2022/12/04 06:19:35;;;;;;;4.75;2.77;;;;;;;-6.42;57.41;103363.04;1789589;79;20919;-86
2022/12/04 06:22:02;;;;;;;10.50;2.62;;;;;;;-6.39;57.52;103366.66;1789718;79;20918;-86
2022/12/04 06:24:29;;;;;;;4.53;2.17;;;;;;;-6.33;57.32;103360.61;1790026;80;20978;-86
2022/12/04 06:26:57;;;;;;;4.97;2.98;;;;;;;-6.27;57.18;103368.60;1789730;79;20919;-88
2022/12/04 06:29:23;;;;;;;7.03;2.58;;;;;;;-6.20;56.95;103368.91;1789574;80;21139;-88
2022/12/04 06:31:50;;;;;;;4.10;2.27;;;;;;;-6.19;56.71;103374.51;1789637;79;20852;-88
2022/12/04 06:34:17;;;;;;;5.83;2.83;;;;;;;-6.19;56.58;103370.27;1789404;80;20954;-88
2022/12/04 06:36:44;;;;;;;5.17;2.77;;;;;;;-6.17;56.50;103370.36;1789511;80;20919;-88
2022/12/04 06:39:10;;;;;;;7.87;3.75;;;;;;;-6.14;56.24;103376.90;1789639;79;20923;-87
2022/12/04 06:41:37;;;;;;;4.08;2.95;;;;;;;-6.13;56.13;103371.02;1789817;80;22234;-86
2022/12/04 06:44:04;;;;;;;5.00;3.52;;;;;;;-6.10;56.20;103395.02;1790030;79;20884;-87
2022/12/04 06:46:32;;;;;;;10.43;3.98;;;;;;;-6.07;56.06;103382.44;1789746;79;20958;-87
2022/12/04 06:49:00;;;;;;;5.08;3.08;;;;;;;-6.00;56.15;103379.80;1789894;79;21006;-86
2022/12/04 06:51:34;;;;;;;5.35;2.98;;;;;;;-5.81;56.05;103389.67;1793264;79;20939;-88
2022/12/04 06:54:02;;;;;;;7.33;3.58;;;;;;;-5.67;55.54;103392.16;1795510;80;21907;-89
2022/12/04 06:56:31;;;;;;;7.15;3.02;;;;;;;-5.64;55.05;103388.87;1794942;79;20903;-89
2022/12/04 06:59:00;;;;;;;4.00;2.30;;;;;;;-5.63;54.83;103387.65;1795227;79;20938;-89
2022/12/04 07:01:29;;;;;;;4.67;2.70;;;;;;;-5.62;54.68;103393.67;1795204;79;20976;-91
2022/12/04 07:03:56;;;;;;;3.35;3.00;;;;;;;-5.65;54.77;103385.45;1794918;80;21385;-90
2022/12/04 07:06:28;;;;;;;11.08;3.50;;;;;;;-5.63;54.88;103378.70;1795611;79;21152;-90
2022/12/04 07:09:01;;;;;;;8.20;3.87;;;;;;;-5.56;54.74;103387.56;1795022;80;20884;-89
2022/12/04 07:11:29;;;;;;;5.08;3.02;;;;;;;-5.52;54.46;103375.42;1795219;79;20978;-90
2022/12/04 07:13:55;;;;;;;7.05;2.98;;;;;;;-5.45;54.34;103385.19;1794957;80;20899;-88
2022/12/04 07:16:24;;;;;;;7.60;3.85;;;;;;;-5.43;53.85;103392.50;1795640;79;20867;-90
2022/12/04 07:18:55;;;;;;;9.70;3.67;;;;;;;-5.44;53.55;103377.11;1795756;79;23099;-89
2022/12/04 07:21:25;;;;;;;12.15;3.50;;;;;;;-5.46;53.91;103380.85;1795407;80;20883;-89
2022/12/04 07:23:55;;;;;;;5.87;2.95;;;;;;;-5.44;53.86;103383.50;1795402;79;20888;-87
2022/12/04 07:26:22;;;;;;;4.12;2.80;;;;;;;-5.45;53.43;103399.25;1798086;79;20954;-89
2022/12/04 07:28:48;;;;;;;9.10;3.00;;;;;;;-5.49;53.43;103390.94;1796102;79;20943;-88
2022/12/04 07:31:18;;;;;;;9.35;3.77;;;;;;;-5.53;53.52;103397.09;1795604;79;22104;-88
2022/12/04 07:33:45;;;;;;;5.83;3.65;;;;;;;-5.53;53.53;103386.46;1796011;79;20903;-86
2022/12/04 07:36:15;;;;;;;11.12;4.95;;;;;;;-5.47;53.75;103376.93;1796032;80;20875;-87
2022/12/04 07:38:42;;;;;;;10.05;4.30;;;;;;;-5.37;53.92;103382.13;1795471;79;20951;-90
2022/12/04 07:41:10;;;;;;;4.15;2.70;;;;;;;-5.25;53.56;103386.56;1795743;80;20981;-89
2022/12/04 07:43:37;;;;;;;5.60;3.37;;;;;;;-5.17;53.13;103393.35;1795067;79;21757;-89
2022/12/04 07:46:06;;;;;;;6.60;2.90;;;;;;;-5.15;52.74;103393.03;1795076;79;20878;-90
2022/12/04 07:48:33;;;;;;;3.90;2.83;;;;;;;-5.19;52.80;103407.75;1796194;79;20884;-88
2022/12/04 07:51:07;;;;;;;5.03;2.47;;;;;;;-5.19;52.64;103389.43;1795225;80;20943;-89
2022/12/04 07:53:34;;;;;;;4.90;2.65;;;;;;;-5.17;52.73;103385.68;1795260;79;20867;-89
2022/12/04 07:56:02;;;;;;;5.60;3.65;;;;;;;-5.17;52.85;103382.72;1795571;79;21262;-87
2022/12/04 07:58:29;;;;;;;3.58;2.15;;;;;;;-5.13;52.83;103397.41;1795187;80;20970;-89
2022/12/04 08:01:18;;;;;;;7.50;3.20;;;;;;;-5.10;52.66;103400.11;1795893;80;20922;-87
2022/12/04 08:03:48;;;;;;;5.53;2.50;;;;;;;-5.09;52.89;103399.33;1774117;79;21014;-86
2022/12/04 08:06:19;;;;;;;8.13;3.05;;;;;;;-4.99;52.51;103390.41;1795720;79;21372;-87
2022/12/04 08:08:46;;;;;;;6.72;3.35;;;;;;;-4.93;52.61;103401.36;1795523;79;21810;-90
2022/12/04 08:11:15;;;;;;;5.62;2.98;;;;;;;-4.86;52.29;103404.28;1795152;79;20867;-89
2022/12/04 08:13:43;;;;;;;9.53;3.77;;;;;;;-4.79;52.08;103410.16;1795523;80;20927;-90
2022/12/04 08:16:13;;;;;;;7.58;3.30;;;;;;;-4.77;51.55;103402.98;1795548;79;20978;-88
2022/12/04 08:18:47;;;;;;;6.67;2.72;;;;;;;-4.80;51.70;103390.51;1796663;79;20974;-90
2022/12/04 08:21:15;;;;;;;4.67;2.08;;;;;;;-4.76;51.58;103403.44;1796900;79;21336;-89
2022/12/04 08:23:45;;;;;;;3.87;2.80;;;;;;;-4.74;51.36;103392.47;1795958;80;21005;-89
2022/12/04 08:26:14;;;;;;;6.58;2.83;;;;;;;-4.74;51.12;103394.16;1795758;79;20914;-89
2022/12/04 08:28:41;;;;;;;4.50;2.98;;;;;;;-4.76;50.93;103395.35;1795135;79;20974;-89
2022/12/04 08:31:12;;;;;;;6.42;3.27;;;;;;;-4.80;51.20;103384.52;1796233;79;21176;-88
2022/12/04 08:33:39;;;;;;;6.08;2.87;;;;;;;-4.80;51.43;103380.68;1797258;78;21287;-88
2022/12/04 08:36:16;;;;;;;4.90;2.85;;;;;;;-4.71;51.44;103367.41;1772515;78;20952;-88
2022/12/04 08:38:43;;;;;;;8.18;3.87;;;;;;;-4.65;51.07;103371.14;1755218;81;20980;-88
2022/12/04 08:41:14;;;;;;;10.65;4.22;;;;;;;-4.61;50.86;103387.12;1755930;81;20915;-88
2022/12/04 08:43:41;;;;;;;10.82;3.30;;;;;;;-4.76;50.73;103348.00;1756511;81;20940;-89
2022/12/04 08:46:10;;;;;;;3.83;2.22;;;;;;;-4.52;50.74;103376.85;1756801;81;21295;-89
2022/12/04 08:48:37;;;;;;;8.78;3.17;;;;;;;-4.46;50.71;103374.59;1756464;81;20899;-89
2022/12/04 08:51:07;;;;;;;8.25;2.62;;;;;;;-4.45;50.04;103369.92;1730556;81;21137;-88
2022/12/04 08:53:35;;;;;;;5.72;2.75;;;;;;;-4.49;49.98;103367.64;1756557;80;21188;-90
2022/12/04 08:56:02;;;;;;;6.15;3.40;;;;;;;-4.52;50.08;103366.61;1756793;81;20883;-90
2022/12/04 08:58:29;;;;;;;9.95;4.17;;;;;;;-4.53;50.26;103363.17;1756575;81;21223;-88
2022/12/04 09:00:55;;;;;;;7.17;3.72;;;;;;;-4.53;50.53;103359.75;1756659;81;20851;-88
2022/12/04 09:03:22;;;;;;;8.35;3.35;;;;;;;-4.43;50.80;103382.39;1756892;81;20981;-89
2022/12/04 09:05:49;;;;;;;11.60;4.60;;;;;;;-4.32;50.07;103363.28;1757125;81;20930;-88
2022/12/04 09:08:16;;;;;;;10.58;4.35;;;;;;;-4.26;50.18;103358.44;1755799;81;20812;-88
2022/12/04 09:10:44;;;;;;;9.40;3.80;;;;;;;-4.22;50.23;103360.75;1754328;81;21272;-89
2022/12/04 09:13:10;;;;;;;9.00;4.12;;;;;;;-4.16;49.67;103357.16;1755244;81;20875;-87
2022/12/04 09:15:40;;;;;;;8.35;4.33;;;;;;;-4.11;49.83;103365.95;1754527;81;21021;-89
2022/12/04 09:18:07;;;;;;;7.35;3.27;;;;;;;-4.03;49.68;103348.34;1754600;81;21463;-90
2022/12/04 09:20:34;;;;;;;7.05;4.05;;;;;;;-4.03;49.53;103358.18;1754817;81;20910;-90
2022/12/04 09:23:02;;;;;;;6.22;2.92;;;;;;;-4.00;49.78;103353.21;1755089;81;21096;-90
2022/12/04 09:25:29;;;;;;;7.92;2.98;;;;;;;-3.88;49.72;103361.84;1755247;81;20895;-88
2022/12/04 09:27:55;;;;;;;5.50;2.67;;;;;;;-3.85;48.93;103346.58;1754605;81;20871;-89
2022/12/04 09:30:22;;;;;;;6.33;3.40;;;;;;;-3.85;49.09;103336.32;1728560;81;21401;-90
2022/12/04 09:32:49;;;;;;;8.05;3.92;;;;;;;-3.87;48.99;103336.66;1754537;81;20959;-89
2022/12/04 09:35:16;;;;;;;7.75;3.37;;;;;;;-3.83;49.24;103321.02;1753980;80;21316;-89
2022/12/04 09:37:42;;;;;;;5.72;4.15;;;;;;;-3.74;48.94;103322.69;1746278;81;20911;-90
2022/12/04 09:40:29;;;;;;;6.12;2.98;;;;;;;-3.70;48.84;103323.30;1746047;81;20931;-87
2022/12/04 09:43:16;;;;;;;7.75;3.20;;;;;;;-3.66;48.69;103321.75;1745938;82;21330;-88
2022/12/04 09:45:47;;;;;;;6.90;3.20;;;;;;;-3.67;48.37;103319.56;1740935;82;20994;-89
2022/12/04 09:48:13;;;;;;;5.58;3.42;;;;;;;-3.69;48.58;103306.22;1746676;81;21201;-88
2022/12/04 09:50:43;;;;;;;7.42;3.30;;;;;;;-3.64;48.58;103313.30;1748115;81;20848;-88
2022/12/04 09:53:23;;;;;;;5.45;3.30;;;;;;;-3.59;48.54;103328.89;1748265;81;21030;-88
2022/12/04 09:56:02;;;;;;;5.55;3.25;;;;;;;-3.57;48.15;103315.72;1748310;81;20998;-86
2022/12/04 09:58:51;;;;;;;10.55;4.45;;;;;;;-3.56;48.32;103318.36;1746069;82;20902;-89
2022/12/04 10:01:27;;;;;;;8.85;3.85;;;;;;;-3.55;48.27;103316.25;1745990;82;21060;-87
2022/12/04 10:03:54;;;;;;;7.40;4.67;;;;;;;-3.55;48.32;103305.99;1746149;81;20966;-89
2022/12/04 10:06:25;;;;;;;6.70;4.17;;;;;;;-3.58;48.27;103303.69;1745865;82;20974;-89
2022/12/04 10:09:00;;;;;;;8.80;4.05;;;;;;;-3.56;48.38;103301.69;1746028;82;20888;-90
2022/12/04 10:11:49;;;;;;;16.37;5.20;;;;;;;-3.47;48.31;103307.99;1716672;82;21225;-90
2022/12/04 10:14:33;;;;;;;6.60;3.92;;;;;;;-3.49;48.50;103302.82;1746437;82;21934;-89
2022/12/04 10:17:37;;;;;;;8.63;4.55;;;;;;;-3.46;48.37;103310.63;1745735;82;20943;-89
2022/12/04 10:21:00;;;;;;;7.53;3.92;;;;;;;-3.48;48.19;103298.14;1746212;81;20855;-90
2022/12/04 10:23:59;;;;;;;8.65;3.75;;;;;;;-3.45;48.23;103300.83;1745927;82;20966;-91
2022/12/04 10:26:31;;;;;;;11.15;4.03;;;;;;;-3.42;47.83;103303.53;1746302;81;21555;-90
2022/12/04 10:29:02;;;;;;;11.45;4.70;;;;;;;-3.41;47.95;103297.99;1745968;82;21157;-89
2022/12/04 10:31:29;;;;;;;8.53;5.42;;;;;;;-3.36;48.35;103294.81;1748445;82;20899;-90
2022/12/04 10:34:00;;;;;;;15.35;6.17;;;;;;;-3.26;48.30;103304.16;1749021;81;20844;-89
2022/12/04 10:36:30;;;;;;;14.23;4.47;;;;;;;-3.22;48.05;103285.11;1743235;80;20970;-89
2022/12/04 10:38:59;;;;;;;7.00;4.37;;;;;;;-3.19;48.02;103290.77;1735708;80;20931;-89
2022/12/04 10:42:04;;;;;;;8.70;4.37;;;;;;;-3.16;47.74;103288.30;1735728;80;21912;-90
2022/12/04 10:44:31;;;;;;;6.08;3.90;;;;;;;-3.15;47.97;103288.79;1735418;80;21140;-90
2022/12/04 10:47:00;;;;;;;10.98;3.27;;;;;;;-3.12;47.51;103306.45;1735574;80;20919;-88
2022/12/04 10:49:31;;;;;;;6.97;3.85;;;;;;;-3.19;47.44;103288.19;1735477;80;20923;-89
2022/12/04 10:51:58;;;;;;;7.05;3.20;;;;;;;-3.22;47.69;103295.78;1735769;80;21021;-89
2022/12/04 10:54:40;;;;;;;5.70;3.72;;;;;;;-3.16;47.33;103296.00;1735506;80;21168;-88
2022/12/04 10:57:09;;;;;;;5.87;3.42;;;;;;;-3.19;47.29;103291.63;1735490;80;21029;-90
2022/12/04 10:59:52;;;;;;;6.30;3.25;;;;;;;-3.19;47.30;103287.78;1735612;80;20952;-90
2022/12/04 11:02:28;;;;;;;10.08;4.35;;;;;;;-3.12;47.31;103292.75;1735632;80;20943;-89
2022/12/04 11:04:58;;;;;;;6.92;4.78;;;;;;;-3.07;47.07;103293.80;1735714;80;20963;-91
2022/12/04 11:07:28;;;;;;;6.53;4.42;;;;;;;-3.03;47.23;103289.67;1735541;80;21298;-87
2022/12/04 11:10:28;;;;;;;11.48;6.45;;;;;;;-2.96;47.37;103292.94;1734823;82;20923;-87
2022/12/04 11:13:07;;;;;;;8.33;4.33;;;;;;;-2.91;47.19;103285.03;1734432;82;20954;-89
2022/12/04 11:15:37;;;;;;;9.05;4.15;;;;;;;-2.83;46.94;103293.88;1716236;82;20887;-88
2022/12/04 11:18:17;;;;;;;7.83;5.15;;;;;;;-2.84;46.71;103285.73;1704010;82;20958;-89
2022/12/04 11:21:07;;;;;;;8.50;3.67;;;;;;;-2.87;46.88;103277.02;1705469;82;21258;-89
2022/12/04 11:23:44;;;;;;;9.78;4.33;;;;;;;-2.87;46.93;103286.88;1732325;82;20919;-89
2022/12/04 11:26:12;;;;;;;11.25;3.52;;;;;;;-2.87;46.64;103286.01;1733388;82;20911;-86
2022/12/04 11:28:47;;;;;;;12.43;6.00;;;;;;;-2.96;46.63;103280.11;1734421;81;20998;-88
2022/12/04 11:31:20;;;;;;;7.80;3.90;;;;;;;-2.98;46.79;103275.31;1751385;81;20877;-89
2022/12/04 11:33:53;;;;;;;6.37;4.37;;;;;;;-2.90;46.78;103270.49;1751172;80;21138;-88
2022/12/04 11:36:26;;;;;;;8.30;4.28;;;;;;;-2.88;46.54;103280.42;1748554;81;20956;-88
2022/12/04 11:38:53;;;;;;;6.05;3.77;;;;;;;-2.88;46.60;103274.00;1742806;81;21019;-90
2022/12/04 11:41:29;;;;;;;7.97;3.25;;;;;;;-2.85;46.52;103273.69;1742672;82;20936;-88
2022/12/04 11:43:56;;;;;;;5.10;3.17;;;;;;;-2.79;46.32;103258.52;1742980;81;20853;-89
2022/12/04 11:46:27;;;;;;;5.40;2.77;;;;;;;-2.71;45.31;103253.28;1742831;81;21136;-90
2022/12/04 11:48:53;;;;;;;5.85;3.00;;;;;;;-2.69;45.54;103261.05;1743093;82;21031;-89
2022/12/04 11:51:44;;;;;;;9.90;3.37;;;;;;;-2.66;45.32;103271.84;1743096;81;20897;-89
2022/12/04 11:54:43;;;;;;;5.90;2.77;;;;;;;-2.63;45.05;103250.11;1742722;81;21422;-89
2022/12/04 11:57:50;;;;;;;7.45;3.92;;;;;;;-2.52;44.76;103243.25;1743616;81;21437;-90
2022/12/04 12:00:21;;;;;;;8.98;4.30;;;;;;;-2.40;44.86;103254.41;1742869;81;21159;-90
2022/12/04 12:03:31;;;;;;;9.78;3.75;;;;;;;-2.36;44.99;103248.53;1742703;81;21491;-89